createdAt,value
2022-11-16T00:01:43.791Z,6.57
2022-11-16T00:04:12.022Z,6.59
2022-11-16T00:06:38.973Z,6.55
2022-11-16T00:09:23.875Z,6.42
2022-11-16T00:11:53.064Z,6.39
2022-11-16T00:14:21.133Z,6.34
2022-11-16T00:16:48.234Z,6.39
2022-11-16T00:19:15.027Z,6.27
2022-11-16T00:21:41.844Z,6.11
2022-11-16T00:24:12.412Z,6.34
2022-11-16T00:26:39.036Z,6.23
2022-11-16T00:29:05.689Z,5.93
2022-11-16T00:31:32.497Z,5.86
2022-11-16T00:33:59.141Z,5.81
2022-11-16T00:36:25.786Z,5.77
2022-11-16T00:38:56.211Z,5.80
2022-11-16T00:41:23.180Z,5.93
2022-11-16T00:43:49.858Z,6.03
2022-11-16T00:46:16.603Z,5.69
2022-11-16T00:48:43.285Z,5.46
2022-11-16T00:51:09.985Z,5.56
2022-11-16T00:53:37.064Z,5.29
2022-11-16T00:56:04.451Z,5.29
2022-11-16T00:58:31.955Z,5.46
2022-11-16T01:01:05.395Z,5.55
2022-11-16T01:03:32.546Z,5.31
2022-11-16T01:06:06.945Z,5.32
2022-11-16T01:08:36.351Z,5.47
2022-11-16T01:11:22.408Z,5.53
2022-11-16T01:13:49.196Z,5.29
2022-11-16T01:16:17.481Z,5.29
2022-11-16T01:18:48.235Z,5.32
2022-11-16T01:21:14.935Z,5.08
2022-11-16T01:23:41.627Z,5.11
2022-11-16T01:26:08.724Z,5.01
2022-11-16T01:28:35.792Z,5.14
2022-11-16T01:31:03.256Z,5.46
2022-11-16T01:33:30.416Z,5.43
2022-11-16T01:35:57.067Z,5.10
2022-11-16T01:38:28.464Z,5.07
2022-11-16T01:40:56.325Z,5.03
2022-11-16T01:43:25.677Z,4.88
2022-11-16T01:45:52.760Z,5.01
2022-11-16T01:48:25.035Z,5.13
2022-11-16T01:50:53.564Z,5.20
2022-11-16T01:53:20.628Z,5.15
2022-11-16T01:55:48.813Z,5.08
2022-11-16T01:58:20.887Z,5.19
2022-11-16T02:00:49.256Z,5.22
2022-11-16T02:03:19.987Z,5.30
2022-11-16T02:06:12.220Z,5.38
2022-11-16T02:09:15.654Z,5.38
2022-11-16T02:12:11.776Z,5.10
2022-11-16T02:14:50.589Z,5.05
2022-11-16T02:17:29.329Z,5.06
2022-11-16T02:20:09.785Z,5.13
2022-11-16T02:22:39.224Z,5.15
2022-11-16T02:25:16.614Z,5.01
2022-11-16T02:28:14.441Z,5.20
2022-11-16T02:30:47.224Z,5.10
2022-11-16T02:33:18.567Z,5.23
2022-11-16T02:35:53.250Z,5.30
2022-11-16T02:38:26.552Z,5.25
2022-11-16T02:40:58.917Z,5.32
2022-11-16T02:43:31.111Z,5.59
2022-11-16T02:46:03.605Z,5.52
2022-11-16T02:48:35.958Z,5.78
2022-11-16T02:51:06.537Z,5.79
2022-11-16T02:53:39.801Z,5.56
2022-11-16T02:56:06.527Z,5.68
2022-11-16T02:58:33.861Z,5.78
2022-11-16T03:01:07.401Z,5.65
2022-11-16T03:03:43.368Z,5.71
2022-11-16T03:06:16.567Z,5.77
2022-11-16T03:08:48.169Z,5.48
2022-11-16T03:11:33.735Z,5.67
2022-11-16T03:14:05.928Z,5.53
2022-11-16T03:16:41.068Z,5.61
2022-11-16T03:19:11.888Z,5.74
2022-11-16T03:21:44.359Z,5.83
2022-11-16T03:24:11.091Z,5.61
2022-11-16T03:27:30.265Z,5.83
2022-11-16T03:30:07.951Z,5.71
2022-11-16T03:32:56.528Z,5.78
2022-11-16T03:35:27.962Z,6.04
2022-11-16T03:37:58.794Z,5.96
2022-11-16T03:40:29.070Z,6.08
2022-11-16T03:42:58.212Z,6.18
2022-11-16T03:45:25.249Z,6.06
2022-11-16T03:47:51.987Z,6.32
2022-11-16T03:50:18.722Z,6.37
2022-11-16T03:52:45.491Z,6.29
2022-11-16T03:55:12.128Z,6.39
2022-11-16T03:57:38.848Z,6.24
2022-11-16T04:00:09.215Z,6.13
2022-11-16T04:02:35.868Z,6.29
2022-11-16T04:05:21.150Z,6.09
2022-11-16T04:08:07.780Z,5.63
2022-11-16T04:10:53.172Z,5.51
2022-11-16T04:13:45.228Z,5.57
2022-11-16T04:16:30.750Z,5.74
2022-11-16T04:19:15.926Z,5.76
2022-11-16T04:22:07.452Z,5.67
2022-11-16T04:24:38.389Z,5.74
2022-11-16T04:27:27.616Z,5.68
2022-11-16T04:29:57.488Z,5.57
2022-11-16T04:32:42.687Z,5.65
2022-11-16T04:35:28.467Z,5.74
2022-11-16T04:37:58.170Z,5.74
2022-11-16T04:40:29.709Z,5.67
2022-11-16T04:43:02.575Z,5.68
2022-11-16T04:45:47.639Z,5.66
2022-11-16T04:48:16.094Z,5.76
2022-11-16T04:50:43.330Z,5.79
2022-11-16T04:53:10.338Z,5.68
2022-11-16T04:55:37.141Z,5.59
2022-11-16T04:58:04.314Z,5.66
2022-11-16T05:00:31.419Z,5.65
2022-11-16T05:03:01.338Z,5.27
2022-11-16T05:05:28.748Z,5.19
2022-11-16T05:07:55.586Z,5.39
2022-11-16T05:10:22.498Z,5.28
2022-11-16T05:12:49.137Z,5.24
2022-11-16T05:15:17.728Z,5.25
2022-11-16T05:17:44.537Z,5.15
2022-11-16T05:20:30.483Z,5.23
2022-11-16T05:22:58.219Z,5.09
2022-11-16T05:25:25.012Z,4.97
2022-11-16T05:27:51.636Z,5.01
2022-11-16T05:30:19.827Z,4.99
2022-11-16T05:32:46.663Z,5.07
2022-11-16T05:35:13.299Z,4.79
2022-11-16T05:37:40.010Z,4.55
2022-11-16T05:40:07.630Z,4.56
2022-11-16T05:42:34.436Z,4.60
2022-11-16T05:45:01.321Z,4.81
2022-11-16T05:47:27.975Z,4.93
2022-11-16T05:49:54.668Z,5.18
2022-11-16T05:52:21.342Z,5.49
2022-11-16T05:54:48.039Z,5.62
2022-11-16T05:57:15.446Z,5.64
2022-11-16T05:59:42.653Z,5.32
2022-11-16T06:02:09.314Z,5.64
2022-11-16T06:04:35.971Z,5.43
2022-11-16T06:09:56.928Z,5.33
2022-11-16T06:12:23.581Z,5.39
2022-11-16T06:14:50.231Z,5.51
2022-11-16T06:17:16.904Z,5.38
2022-11-16T06:19:43.521Z,5.45
2022-11-16T06:22:10.211Z,5.62
2022-11-16T06:24:36.925Z,5.56
2022-11-16T06:27:03.575Z,5.38
2022-11-16T06:29:30.185Z,5.31
2022-11-16T06:31:56.882Z,5.19
2022-11-16T06:34:23.993Z,5.23
2022-11-16T06:36:50.720Z,5.18
2022-11-16T06:39:17.351Z,5.42
2022-11-16T06:41:43.990Z,5.59
2022-11-16T06:44:10.712Z,5.69
2022-11-16T06:46:37.451Z,5.85
2022-11-16T06:49:04.719Z,5.97
2022-11-16T06:51:31.369Z,5.78
2022-11-16T06:56:41.885Z,5.90
2022-11-16T06:59:08.677Z,6.46
2022-11-16T07:01:35.408Z,6.86
2022-11-16T07:04:02.135Z,7.48
2022-11-16T07:06:29.968Z,7.33
2022-11-16T07:08:56.806Z,7.15
2022-11-16T07:11:23.507Z,7.31
2022-11-16T07:13:50.195Z,7.07
2022-11-16T07:16:16.818Z,6.92
2022-11-16T07:18:43.510Z,7.58
2022-11-16T07:21:13.183Z,8.29
2022-11-16T07:23:40.129Z,8.57
2022-11-16T07:26:08.004Z,8.38
2022-11-16T07:28:35.379Z,8.59
2022-11-16T07:31:07.648Z,8.52
2022-11-16T07:33:35.712Z,8.77
2022-11-16T07:36:10.575Z,8.60
2022-11-16T07:38:37.467Z,8.50
2022-11-16T07:41:06.418Z,8.84
2022-11-16T07:43:36.842Z,9.21
2022-11-16T07:46:30.515Z,9.25
2022-11-16T07:48:50.523Z,9.09
2022-11-16T07:51:18.397Z,8.88
2022-11-16T07:53:45.761Z,9.33
2022-11-16T07:56:13.142Z,9.55
2022-11-16T07:58:40.399Z,9.36
2022-11-16T08:01:11.556Z,9.74
2022-11-16T08:03:39.409Z,9.57
2022-11-16T08:06:11.229Z,8.94
2022-11-16T08:08:38.332Z,8.93
2022-11-16T08:11:09.835Z,9.77
2022-11-16T08:13:38.624Z,9.35
2022-11-16T08:16:09.427Z,10.10
2022-11-16T08:18:37.470Z,10.89
2022-11-16T08:21:06.148Z,10.56
2022-11-16T08:23:33.364Z,10.71
2022-11-16T08:26:02.296Z,10.29
2022-11-16T08:28:29.593Z,10.13
2022-11-16T08:30:56.797Z,10.78
2022-11-16T08:33:24.557Z,10.61
2022-11-16T08:35:52.668Z,10.60
2022-11-16T08:38:19.292Z,10.82
2022-11-16T08:40:46.820Z,10.41
2022-11-16T08:43:13.938Z,10.61
2022-11-16T08:45:40.598Z,11.08
2022-11-16T08:48:07.342Z,11.35
2022-11-16T08:50:55.486Z,11.21
2022-11-16T08:53:20.629Z,11.05
2022-11-16T08:55:47.302Z,10.91
2022-11-16T08:58:13.954Z,11.67
2022-11-16T09:00:40.560Z,11.94
2022-11-16T09:03:07.350Z,11.79
2022-11-16T09:05:33.968Z,11.56
2022-11-16T09:08:01.184Z,11.45
2022-11-16T09:10:29.237Z,11.62
2022-11-16T09:15:39.913Z,12.15
2022-11-16T09:18:07.031Z,12.95
2022-11-16T09:20:33.692Z,12.98
2022-11-16T09:23:00.400Z,13.02
2022-11-16T09:25:27.295Z,12.84
2022-11-16T09:27:57.131Z,12.64
2022-11-16T09:30:23.822Z,12.45
2022-11-16T09:32:50.521Z,12.39
2022-11-16T09:35:17.466Z,12.92
2022-11-16T09:37:44.407Z,12.39
2022-11-16T09:43:11.667Z,13.09
2022-11-16T09:45:47.764Z,13.20
2022-11-16T09:48:17.235Z,13.92
2022-11-16T09:50:46.840Z,14.14
2022-11-16T09:53:48.954Z,13.83
2022-11-16T09:56:23.874Z,13.22
2022-11-16T09:59:05.397Z,13.31
2022-11-16T10:01:52.727Z,13.22
2022-11-16T10:07:46.715Z,14.26
2022-11-16T10:10:18.664Z,14.32
2022-11-16T10:12:48.266Z,14.22
2022-11-16T10:15:41.303Z,13.73
2022-11-16T10:18:28.749Z,14.07
2022-11-16T10:21:23.331Z,14.40
2022-11-16T10:24:02.024Z,14.14
2022-11-16T10:26:46.814Z,14.87
2022-11-16T10:29:55.687Z,14.53
2022-11-16T10:32:29.371Z,14.83
2022-11-16T10:35:12.159Z,15.80
2022-11-16T10:37:48.201Z,15.44
2022-11-16T10:40:36.858Z,15.35
2022-11-16T10:43:17.036Z,15.33
2022-11-16T10:45:47.931Z,15.68
2022-11-16T10:48:32.263Z,15.83
2022-11-16T10:50:58.930Z,15.52
2022-11-16T10:53:29.009Z,15.72
2022-11-16T10:56:23.003Z,15.95
2022-11-16T10:58:58.123Z,16.23
2022-11-16T11:01:38.110Z,16.42
2022-11-16T11:04:23.630Z,16.69
2022-11-16T11:07:19.121Z,16.33
2022-11-16T11:09:52.816Z,16.31
2022-11-16T11:12:39.409Z,16.22
2022-11-16T11:15:15.631Z,17.20
2022-11-16T11:17:45.214Z,16.72
2022-11-16T11:20:14.837Z,16.88
2022-11-16T11:22:59.629Z,16.02
2022-11-16T11:25:30.444Z,16.17
2022-11-16T11:28:21.712Z,16.87
2022-11-16T11:31:02.074Z,16.32
2022-11-16T11:33:51.827Z,16.63
2022-11-16T11:36:35.636Z,16.81
2022-11-16T11:39:13.545Z,16.74
2022-11-16T11:41:45.173Z,16.96
2022-11-16T11:44:20.096Z,17.29
2022-11-16T11:47:50.301Z,17.48
2022-11-16T11:50:14.439Z,17.24
2022-11-16T11:53:23.450Z,16.76
2022-11-16T11:55:57.843Z,16.97
2022-11-16T11:58:34.108Z,17.68
2022-11-16T12:01:40.000Z,17.80
2022-11-16T12:04:40.637Z,17.85
2022-11-16T12:07:46.763Z,17.32
2022-11-16T12:10:41.333Z,17.13
2022-11-16T12:13:13.903Z,17.55
2022-11-16T12:16:06.617Z,17.36
2022-11-16T12:18:49.482Z,17.76
2022-11-16T12:21:30.955Z,16.82
2022-11-16T12:24:16.786Z,16.99
2022-11-16T12:27:01.774Z,17.22
2022-11-16T12:30:02.046Z,17.80
2022-11-16T12:32:34.816Z,17.53
2022-11-16T12:35:26.217Z,17.64
2022-11-16T12:38:14.686Z,17.93
2022-11-16T12:41:09.297Z,17.99
2022-11-16T12:43:51.022Z,18.50
2022-11-16T12:46:29.956Z,17.96
2022-11-16T12:49:05.614Z,17.76
2022-11-16T12:51:45.391Z,17.47
2022-11-16T12:54:38.646Z,16.59
2022-11-16T12:57:33.656Z,16.31
2022-11-16T13:00:09.741Z,16.50
2022-11-16T13:02:43.661Z,15.91
2022-11-16T13:05:21.235Z,16.17
2022-11-16T13:07:52.961Z,16.17
2022-11-16T13:10:24.988Z,16.03
2022-11-16T13:13:21.969Z,15.58
2022-11-16T13:15:47.887Z,15.86
2022-11-16T13:18:18.292Z,15.81
2022-11-16T13:20:50.916Z,15.54
2022-11-16T13:23:26.725Z,15.55
2022-11-16T13:26:18.540Z,15.69
2022-11-16T13:28:55.044Z,15.67
2022-11-16T13:31:24.916Z,15.57
2022-11-16T13:33:58.031Z,15.21
2022-11-16T13:36:37.219Z,14.99
2022-11-16T13:39:06.241Z,15.06
2022-11-16T13:41:43.107Z,15.20
2022-11-16T13:44:20.066Z,15.17
2022-11-16T13:47:05.403Z,15.20
2022-11-16T13:49:36.820Z,15.21
2022-11-16T13:52:23.065Z,15.24
2022-11-16T13:54:55.943Z,15.33
2022-11-16T13:57:34.654Z,15.26
2022-11-16T14:00:01.314Z,15.36
2022-11-16T14:02:36.668Z,14.79
2022-11-16T14:05:14.107Z,14.54
2022-11-16T14:07:49.851Z,14.41
2022-11-16T14:10:34.981Z,14.23
2022-11-16T14:13:06.527Z,14.11
2022-11-16T14:15:37.949Z,14.14
2022-11-16T14:18:16.302Z,14.00
2022-11-16T14:21:06.523Z,14.16
2022-11-16T14:24:13.952Z,13.85
2022-11-16T14:26:52.708Z,13.64
2022-11-16T14:29:35.404Z,13.68
2022-11-16T14:32:04.750Z,13.41
2022-11-16T14:34:41.743Z,13.26
2022-11-16T14:37:30.191Z,13.25
2022-11-16T14:40:19.976Z,13.15
2022-11-16T14:43:15.249Z,13.07
2022-11-16T14:45:41.322Z,13.04
2022-11-16T14:48:19.955Z,12.90
2022-11-16T14:51:00.298Z,13.01
2022-11-16T14:53:29.053Z,12.93
2022-11-16T14:56:10.800Z,12.78
2022-11-16T14:58:38.521Z,12.85
2022-11-16T15:01:08.416Z,12.71
2022-11-16T15:03:41.913Z,12.62
2022-11-16T15:06:09.085Z,12.80
2022-11-16T15:08:45.531Z,12.81
2022-11-16T15:11:23.292Z,12.75
2022-11-16T15:13:50.704Z,12.86
2022-11-16T15:16:20.204Z,12.66
2022-11-16T15:19:00.602Z,12.78
2022-11-16T15:21:28.096Z,12.93
2022-11-16T15:24:23.500Z,12.76
2022-11-16T15:26:41.641Z,12.65
2022-11-16T15:29:15.647Z,12.59
2022-11-16T15:31:42.773Z,12.70
2022-11-16T15:34:13.476Z,12.92
2022-11-16T15:36:41.371Z,13.10
2022-11-16T15:39:22.218Z,12.64
2022-11-16T15:41:51.228Z,12.89
2022-11-16T15:44:20.514Z,13.02
2022-11-16T15:46:55.898Z,12.97
2022-11-16T15:49:29.100Z,13.09
2022-11-16T15:52:00.310Z,13.12
2022-11-16T15:54:29.866Z,13.04
2022-11-16T15:57:08.164Z,13.35
2022-11-16T15:59:38.024Z,13.24
2022-11-16T16:02:05.272Z,13.10
2022-11-16T16:04:32.102Z,13.15
2022-11-16T16:07:00.339Z,13.21
2022-11-16T16:09:32.705Z,13.15
2022-11-16T16:12:23.921Z,13.05
2022-11-16T16:14:52.485Z,12.76
2022-11-16T16:17:30.036Z,12.96
2022-11-16T16:20:00.443Z,12.96
2022-11-16T16:22:33.142Z,12.87
2022-11-16T16:25:01.737Z,12.97
2022-11-16T16:27:30.419Z,12.97
2022-11-16T16:29:59.003Z,12.39
2022-11-16T16:32:29.827Z,12.54
2022-11-16T16:34:59.436Z,12.61
2022-11-16T16:37:29.830Z,12.37
2022-11-16T16:39:57.417Z,12.28
2022-11-16T16:42:25.124Z,12.33
2022-11-16T16:44:52.584Z,12.23
2022-11-16T16:47:22.475Z,12.46
2022-11-16T16:49:49.985Z,12.28
2022-11-16T16:52:17.780Z,12.16
2022-11-16T16:54:44.872Z,12.37
2022-11-16T16:57:16.476Z,12.15
2022-11-16T16:59:45.703Z,12.10
2022-11-16T17:02:14.383Z,12.22
2022-11-16T17:04:41.592Z,12.08
2022-11-16T17:07:08.532Z,11.85
2022-11-16T17:09:35.299Z,11.85
2022-11-16T17:12:03.559Z,12.00
2022-11-16T17:14:31.014Z,11.93
2022-11-16T17:16:57.917Z,12.11
2022-11-16T17:19:24.653Z,12.02
2022-11-16T17:21:52.364Z,12.19
2022-11-16T17:24:19.775Z,12.21
2022-11-16T17:26:50.710Z,12.05
2022-11-16T17:29:17.480Z,12.02
2022-11-16T17:31:47.244Z,11.82
2022-11-16T17:34:14.768Z,11.96
2022-11-16T17:36:42.568Z,12.11
2022-11-16T17:39:09.923Z,12.00
2022-11-16T17:41:37.283Z,11.99
2022-11-16T17:44:04.717Z,12.07
2022-11-16T17:46:33.112Z,11.99
2022-11-16T17:49:00.209Z,12.03
2022-11-16T17:51:30.077Z,12.06
2022-11-16T17:53:56.823Z,11.98
2022-11-16T17:56:27.759Z,11.88
2022-11-16T17:58:55.891Z,11.87
2022-11-16T18:01:23.235Z,11.71
2022-11-16T18:03:50.144Z,11.77
2022-11-16T18:06:20.086Z,11.86
2022-11-16T18:08:47.737Z,11.77
2022-11-16T18:11:23.040Z,11.83
2022-11-16T18:14:04.789Z,11.66
2022-11-16T18:16:33.575Z,11.42
2022-11-16T18:19:02.710Z,11.49
2022-11-16T18:21:29.911Z,11.53
2022-11-16T18:23:58.988Z,11.63
2022-11-16T18:26:26.744Z,11.78
2022-11-16T18:28:54.059Z,11.63
2022-11-16T18:31:23.283Z,11.75
2022-11-16T18:33:50.756Z,11.76
2022-11-16T18:36:19.745Z,11.84
2022-11-16T18:38:48.497Z,12.01
2022-11-16T18:41:20.152Z,12.11
2022-11-16T18:43:54.584Z,11.88
2022-11-16T18:46:25.942Z,11.81
2022-11-16T18:48:53.440Z,11.63
2022-11-16T18:51:21.872Z,11.46
2022-11-16T18:53:52.607Z,10.83
2022-11-16T18:56:19.723Z,10.63
2022-11-16T18:58:51.901Z,10.67
2022-11-16T19:01:22.575Z,10.22
2022-11-16T19:03:50.496Z,10.12
2022-11-16T19:06:18.512Z,10.08
2022-11-16T19:08:55.003Z,10.07
2022-11-16T19:11:24.456Z,9.99
2022-11-16T19:13:57.434Z,9.76
2022-11-16T19:16:25.097Z,9.59
2022-11-16T19:18:52.323Z,9.65
2022-11-16T19:21:19.481Z,9.61
2022-11-16T19:23:48.954Z,9.81
2022-11-16T19:26:18.337Z,10.04
2022-11-16T19:28:47.339Z,10.04
2022-11-16T19:31:25.986Z,10.29
2022-11-16T19:34:05.200Z,10.11
2022-11-16T19:36:33.269Z,9.83
2022-11-16T19:39:00.157Z,10.26
2022-11-16T19:41:27.870Z,10.21
2022-11-16T19:43:59.268Z,10.02
2022-11-16T19:46:30.590Z,10.02
2022-11-16T19:48:58.378Z,10.11
2022-11-16T19:51:27.957Z,10.34
2022-11-16T19:53:54.966Z,10.48
2022-11-16T19:56:24.022Z,10.24
2022-11-16T19:58:50.885Z,10.35
2022-11-16T20:01:23.580Z,10.50
2022-11-16T20:03:50.588Z,10.54
2022-11-16T20:06:19.164Z,10.38
2022-11-16T20:08:51.232Z,10.26
2022-11-16T20:11:23.552Z,10.40
2022-11-16T20:13:52.285Z,10.59
2022-11-16T20:16:20.854Z,10.67
2022-11-16T20:18:47.750Z,10.60
2022-11-16T20:21:22.040Z,10.41
2022-11-16T20:23:49.880Z,10.39
2022-11-16T20:26:16.622Z,10.53
2022-11-16T20:28:44.047Z,10.51
2022-11-16T20:31:15.908Z,10.48
2022-11-16T20:33:49.255Z,10.57
2022-11-16T20:36:16.050Z,10.63
2022-11-16T20:38:42.694Z,10.31
2022-11-16T20:41:16.547Z,10.42
2022-11-16T20:43:44.415Z,10.36
2022-11-16T20:46:14.005Z,10.21
2022-11-16T20:48:42.768Z,10.41
2022-11-16T20:51:11.617Z,10.51
2022-11-16T20:53:38.670Z,10.44
2022-11-16T20:56:07.696Z,10.29
2022-11-16T20:58:35.092Z,10.27
2022-11-16T21:01:07.685Z,10.11
2022-11-16T21:03:34.971Z,10.31
2022-11-16T21:06:01.764Z,10.35
2022-11-16T21:08:31.400Z,10.02
2022-11-16T21:10:58.468Z,10.08
2022-11-16T21:13:43.611Z,10.15
2022-11-16T21:16:12.739Z,10.20
2022-11-16T21:18:40.226Z,10.17
2022-11-16T21:21:09.501Z,10.10
2022-11-16T21:23:37.315Z,10.46
2022-11-16T21:26:11.293Z,10.44
2022-11-16T21:28:38.630Z,10.48
2022-11-16T21:31:08.171Z,10.30
2022-11-16T21:33:35.257Z,10.34
2022-11-16T21:36:06.593Z,10.29
2022-11-16T21:38:34.348Z,10.19
2022-11-16T21:41:01.887Z,10.32
2022-11-16T21:43:28.571Z,10.32
2022-11-16T21:46:01.873Z,10.32
2022-11-16T21:48:28.766Z,9.97
2022-11-16T21:51:07.353Z,10.08
2022-11-16T21:53:35.400Z,10.15
2022-11-16T21:56:03.165Z,10.27
2022-11-16T21:58:29.800Z,10.32
2022-11-16T22:00:58.472Z,10.05
2022-11-16T22:03:28.047Z,10.18
2022-11-16T22:06:14.660Z,10.23
2022-11-16T22:08:41.695Z,10.31
2022-11-16T22:11:09.556Z,10.09
2022-11-16T22:13:37.592Z,10.14
2022-11-16T22:16:08.775Z,10.31
2022-11-16T22:18:36.108Z,10.37
2022-11-16T22:21:03.277Z,10.38
2022-11-16T22:23:31.080Z,10.02
2022-11-16T22:26:06.612Z,9.78
2022-11-16T22:28:34.320Z,10.11
2022-11-16T22:31:14.652Z,10.10
2022-11-16T22:33:41.954Z,9.92
2022-11-16T22:36:11.776Z,9.96
2022-11-16T22:38:38.576Z,9.91
2022-11-16T22:41:05.875Z,9.87
2022-11-16T22:43:33.171Z,9.61
2022-11-16T22:46:05.710Z,9.82
2022-11-16T22:48:37.598Z,9.54
2022-11-16T22:51:05.800Z,9.61
2022-11-16T22:53:32.848Z,9.74
2022-11-16T22:56:09.703Z,9.69
2022-11-16T22:58:37.719Z,9.46
2022-11-16T23:01:07.437Z,9.54
2022-11-16T23:03:34.560Z,9.79
2022-11-16T23:06:01.968Z,9.90
2022-11-16T23:08:28.854Z,10.05
2022-11-16T23:11:17.655Z,9.57
2022-11-16T23:14:03.621Z,9.69
2022-11-16T23:16:30.516Z,9.74
2022-11-16T23:18:57.304Z,9.82
2022-11-16T23:21:43.007Z,9.46
2022-11-16T23:24:29.965Z,9.45
2022-11-16T23:27:16.164Z,9.52
2022-11-16T23:29:43.254Z,9.67
2022-11-16T23:32:10.143Z,9.74
2022-11-16T23:34:36.855Z,9.62
2022-11-16T23:37:07.978Z,9.62
2022-11-16T23:39:34.752Z,9.84
2022-11-16T23:42:19.949Z,9.60
2022-11-16T23:44:46.857Z,9.62
2022-11-16T23:47:13.537Z,9.38
2022-11-16T23:49:40.233Z,9.42
2022-11-16T23:52:06.848Z,9.70
2022-11-16T23:54:33.583Z,9.84
2022-11-16T23:57:00.465Z,10.02
2022-11-16T23:59:27.260Z,9.72
